Time;durP1;ratioP1;P1;durP2;ratioP2;P2;SDS_P1;SDS_P2;PMS_P1;PMS_P2;Temp;Humidity;BMP_temperature;BMP_pressure;BME280_temperature;BME280_humidity;BME280_pressure;Samples;Min_cycle;Max_cycle;Signal;HPM_P1;HPM_P2
2023/10/13 04:06:48;;;;;;;0.30;0.30;;;16.00;99.90;;;;;;5345409;22;20988;-61
2023/10/13 04:17:22;;;;;;;0.50;0.50;;;16.30;99.90;;;;;;5116659;28;20405;-61
2023/10/13 04:25:35;;;;;;;0.30;0.30;;;16.30;99.90;;;;;;5136478;27;20426;-62
2023/10/13 04:36:16;;;;;;;0.83;0.83;;;16.10;99.90;;;;;;5134525;27;20462;-62
2023/10/13 04:39:09;;;;;;;0.30;0.30;;;16.00;99.90;;;;;;5117551;27;20878;-62
2023/10/13 04:41:43;;;;;;;0.30;0.30;;;16.00;99.90;;;;;;5136339;27;20762;-60
2023/10/13 04:47:48;;;;;;;1.67;0.97;;;15.80;99.90;;;;;;5136421;27;20391;-61
2023/10/13 04:52:15;;;;;;;0.30;0.20;;;15.70;99.90;;;;;;5136445;27;20487;-63
2023/10/13 05:00:54;;;;;;;0.70;0.40;;;15.50;99.90;;;;;;5136099;27;20388;-61
2023/10/13 05:06:10;;;;;;;1.80;0.73;;;15.30;99.90;;;;;;5135183;27;20424;-65
2023/10/13 05:44:33;;;;;;;0.30;0.30;;;15.50;99.90;;;;;;5132115;27;21032;-61
2023/10/13 05:47:36;;;;;;;0.30;0.30;;;15.50;99.90;;;;;;5123790;27;20563;-60
2023/10/13 05:49:52;;;;;;;1.50;1.40;;;15.40;99.90;;;;;;5132203;27;20431;-61
2023/10/13 06:30:38;;;;;;;0.30;0.30;;;16.50;99.90;;;;;;5126990;27;20424;-61
2023/10/13 06:33:05;;;;;;;0.30;0.30;;;16.70;99.90;;;;;;5128388;27;20415;-61
2023/10/13 06:35:34;;;;;;;0.30;0.20;;;16.90;99.90;;;;;;5120948;27;20505;-64
2023/10/13 06:38:00;;;;;;;0.40;0.30;;;17.10;99.90;;;;;;5121387;28;20442;-62
2023/10/13 06:40:27;;;;;;;0.30;0.30;;;17.10;99.90;;;;;;5124569;27;20407;-61
2023/10/13 06:42:55;;;;;;;0.30;0.30;;;17.30;99.90;;;;;;5113388;28;20552;-62
2023/10/13 06:45:21;;;;;;;0.53;0.53;;;17.40;99.90;;;;;;5112827;28;20948;-61
2023/10/13 06:47:52;;;;;;;0.40;0.40;;;17.60;99.90;;;;;;5115872;28;20435;-63
2023/10/13 06:50:19;;;;;;;0.40;0.40;;;17.70;99.90;;;;;;5113456;28;20428;-64
2023/10/13 06:52:49;;;;;;;0.60;0.40;;;17.70;99.90;;;;;;5112942;28;20424;-63
2023/10/13 06:55:23;;;;;;;0.30;0.30;;;17.80;99.90;;;;;;5112795;28;20456;-63
2023/10/13 06:57:51;;;;;;;0.40;0.40;;;17.90;99.90;;;;;;5113596;28;20405;-63
2023/10/13 07:00:28;;;;;;;0.30;0.20;;;18.00;99.90;;;;;;5113173;28;20906;-66
2023/10/13 07:02:54;;;;;;;0.30;0.30;;;18.10;99.90;;;;;;5113674;28;20785;-64
2023/10/13 07:05:19;;;;;;;0.30;0.30;;;18.10;99.90;;;;;;5112831;28;20396;-64
2023/10/13 07:07:48;;;;;;;0.30;0.20;;;18.10;99.90;;;;;;5113537;28;20525;-64
2023/10/13 07:10:13;;;;;;;0.30;0.20;;;18.10;99.90;;;;;;5095172;28;20176;-63
2023/10/13 07:12:49;;;;;;;0.63;0.63;;;18.10;99.90;;;;;;5113161;28;20454;-63
2023/10/13 07:17:44;;;;;;;0.30;0.30;;;18.60;99.90;;;;;;5113056;28;20820;-63
2023/10/13 07:23:03;;;;;;;0.30;0.30;;;18.80;99.90;;;;;;5112976;28;20906;-63
2023/10/13 07:25:37;;;;;;;1.07;0.97;;;18.90;99.90;;;;;;5112306;28;20903;-61
2023/10/13 07:28:09;;;;;;;0.30;0.20;;;19.20;99.90;;;;;;5131096;28;20424;-63
2023/10/13 07:30:49;;;;;;;0.30;0.20;;;19.70;99.90;;;;;;5133232;28;20770;-62
2023/10/13 07:33:19;;;;;;;0.30;0.30;;;20.00;99.40;;;;;;5133496;28;20415;-63
2023/10/13 07:35:50;;;;;;;0.30;0.20;;;20.60;98.30;;;;;;5135340;27;20459;-63
2023/10/13 07:38:16;;;;;;;0.87;0.87;;;21.30;97.50;;;;;;5137567;27;20400;-63
2023/10/13 07:40:50;;;;;;;0.40;0.40;;;22.20;97.10;;;;;;5137032;27;20806;-62
2023/10/13 07:43:21;;;;;;;0.50;0.37;;;23.20;95.30;;;;;;5137327;27;20378;-63
2023/10/13 07:45:50;;;;;;;0.47;0.33;;;24.00;93.90;;;;;;5135836;27;20793;-60
2023/10/13 07:48:20;;;;;;;0.50;0.50;;;24.80;92.30;;;;;;5098205;28;20424;-60
2023/10/13 07:50:46;;;;;;;0.30;0.20;;;25.50;91.20;;;;;;5114652;28;20409;-61
2023/10/13 07:53:24;;;;;;;0.80;0.77;;;26.10;88.90;;;;;;5116091;28;20421;-63
2023/10/13 07:56:00;;;;;;;0.80;0.50;;;26.70;85.00;;;;;;5115261;28;20438;-61
2023/10/13 07:58:26;;;;;;;2.40;1.37;;;27.50;81.70;;;;;;5097040;28;20881;-61
2023/10/13 08:01:06;;;;;;;0.70;0.70;;;27.80;79.60;;;;;;5116399;28;20462;-63
2023/10/13 08:03:45;;;;;;;0.60;0.60;;;28.00;79.60;;;;;;5116619;28;20171;-62
2023/10/13 08:08:49;;;;;;;0.30;0.30;;;28.70;75.90;;;;;;5114723;28;20481;-60
2023/10/13 08:13:53;;;;;;;0.57;0.57;;;29.40;72.30;;;;;;5113978;28;20424;-62
2023/10/13 08:16:21;;;;;;;0.30;0.30;;;29.70;69.90;;;;;;5096151;28;20416;-64
2023/10/13 08:18:50;;;;;;;0.57;0.57;;;29.60;69.80;;;;;;5096193;28;20904;-62
2023/10/13 08:21:31;;;;;;;0.40;0.40;;;29.90;67.80;;;;;;5096255;28;20477;-63
2023/10/13 08:23:58;;;;;;;0.83;0.60;;;30.20;69.40;;;;;;5115555;28;20408;-61
2023/10/13 08:34:39;;;;;;;0.30;0.30;;;30.40;69.50;;;;;;5135958;27;20463;-63
2023/10/13 08:48:14;;;;;;;0.33;0.33;;;31.80;60.00;;;;;;5125256;27;20430;-61
2023/10/13 08:50:48;;;;;;;0.73;0.60;;;32.30;59.30;;;;;;5129720;27;20512;-60
2023/10/13 09:02:15;;;;;;;0.30;0.30;;;33.80;56.80;;;;;;5126172;27;20391;-65
2023/10/13 09:04:44;;;;;;;0.30;0.30;;;34.00;55.10;;;;;;5135400;27;20778;-61
2023/10/13 09:07:15;;;;;;;0.67;0.67;;;34.20;54.70;;;;;;5135614;27;20515;-60
2023/10/13 09:09:59;;;;;;;0.67;0.67;;;34.40;54.90;;;;;;5135881;27;20420;-58
2023/10/13 09:17:53;;;;;;;0.70;0.60;;;34.20;54.20;;;;;;5115082;28;20445;-62
2023/10/13 09:20:42;;;;;;;0.70;0.70;;;34.30;54.70;;;;;;5115275;27;20405;-60
2023/10/13 09:23:19;;;;;;;0.33;0.33;;;34.40;53.80;;;;;;5116682;27;20425;-60
2023/10/13 09:25:58;;;;;;;0.40;0.40;;;34.80;53.60;;;;;;5134709;27;20509;-63
2023/10/13 09:28:27;;;;;;;1.07;0.43;;;35.20;52.50;;;;;;5135400;27;20420;-62
2023/10/13 09:30:58;;;;;;;0.30;0.30;;;35.30;52.90;;;;;;5130150;27;20506;-61
2023/10/13 09:34:09;;;;;;;0.40;0.40;;;35.40;53.20;;;;;;5114618;28;20746;-62
2023/10/13 09:36:17;;;;;;;0.40;0.40;;;35.50;52.80;;;;;;5109117;27;20497;-62
2023/10/13 09:38:48;;;;;;;0.63;0.63;;;35.30;52.10;;;;;;5116695;27;20459;-62
2023/10/13 09:41:26;;;;;;;0.60;0.60;;;35.00;52.30;;;;;;5134990;27;20407;-62
2023/10/13 09:43:52;;;;;;;0.40;0.40;;;34.80;52.30;;;;;;5134488;27;20515;-63
2023/10/13 09:46:26;;;;;;;0.30;0.30;;;34.70;52.30;;;;;;5124199;27;20457;-63
2023/10/13 09:49:14;;;;;;;0.40;0.40;;;34.80;52.40;;;;;;5114495;28;20409;-61
2023/10/13 09:51:44;;;;;;;1.53;0.60;;;34.60;52.50;;;;;;5096179;28;20894;-62
2023/10/13 09:54:31;;;;;;;0.70;0.70;;;34.30;52.90;;;;;;5114084;28;20389;-62
2023/10/13 09:57:03;;;;;;;0.40;0.40;;;33.70;52.70;;;;;;5124582;27;20733;-61
2023/10/13 09:59:35;;;;;;;0.30;0.30;;;33.40;53.60;;;;;;5134302;27;20375;-63
2023/10/13 10:02:08;;;;;;;0.50;0.50;;;33.10;52.60;;;;;;5116088;27;20817;-62
2023/10/13 10:04:37;;;;;;;1.10;0.83;;;32.90;53.20;;;;;;5133507;27;20476;-60
2023/10/13 10:07:02;;;;;;;0.40;0.40;;;32.80;53.10;;;;;;5121993;27;20411;-60
2023/10/13 10:09:37;;;;;;;0.30;0.30;;;32.80;53.70;;;;;;5113520;28;20522;-63
2023/10/13 10:12:36;;;;;;;0.50;0.40;;;32.90;53.50;;;;;;5114364;28;20170;-62
2023/10/13 10:15:24;;;;;;;0.73;0.73;;;33.30;52.40;;;;;;5113238;28;20508;-62
2023/10/13 10:17:52;;;;;;;0.43;0.43;;;33.40;52.60;;;;;;5111831;27;20913;-62
2023/10/13 10:20:51;;;;;;;0.93;0.90;;;33.60;52.50;;;;;;5134428;27;20456;-62
2023/10/13 10:23:30;;;;;;;0.40;0.40;;;33.90;52.70;;;;;;5115637;27;20769;-61
2023/10/13 10:26:08;;;;;;;0.40;0.40;;;34.30;52.60;;;;;;5132083;27;20438;-63
2023/10/13 10:28:39;;;;;;;0.40;0.30;;;34.60;52.10;;;;;;5112153;28;20417;-62
2023/10/13 10:31:09;;;;;;;0.60;0.50;;;34.90;50.60;;;;;;5113718;28;20500;-62
2023/10/13 10:33:35;;;;;;;0.30;0.30;;;34.80;49.30;;;;;;5112473;28;20409;-64
2023/10/13 10:36:01;;;;;;;0.50;0.40;;;34.40;48.80;;;;;;5111941;27;20448;-62
2023/10/13 10:41:00;;;;;;;0.30;0.30;;;32.50;51.10;;;;;;5132323;28;20391;-61
2023/10/13 10:43:42;;;;;;;0.40;0.40;;;31.90;51.20;;;;;;5130566;28;20434;-64
2023/10/13 10:46:17;;;;;;;0.37;0.37;;;31.60;50.90;;;;;;5127856;28;20443;-64
2023/10/13 10:48:43;;;;;;;0.30;0.30;;;31.50;51.50;;;;;;5111200;28;20376;-63
2023/10/13 10:51:15;;;;;;;0.50;0.43;;;31.50;51.60;;;;;;5112034;28;20403;-62
2023/10/13 10:53:44;;;;;;;0.40;0.40;;;31.40;51.30;;;;;;5111906;28;20376;-63
2023/10/13 10:56:19;;;;;;;0.30;0.30;;;31.30;51.50;;;;;;5112844;28;20400;-61
2023/10/13 10:58:54;;;;;;;0.50;0.50;;;30.90;51.70;;;;;;5132987;28;20408;-63
2023/10/13 11:01:24;;;;;;;0.30;0.30;;;30.50;52.40;;;;;;5133173;28;20379;-63
2023/10/13 11:03:59;;;;;;;0.30;0.30;;;30.20;53.30;;;;;;5133517;28;20450;-61
2023/10/13 11:06:26;;;;;;;0.50;0.43;;;30.00;52.80;;;;;;5130761;28;20830;-61
2023/10/13 11:09:18;;;;;;;0.30;0.30;;;29.90;53.40;;;;;;5113432;28;20402;-61
2023/10/13 11:11:52;;;;;;;0.60;0.60;;;29.80;54.50;;;;;;5117632;28;20428;-62
2023/10/13 11:14:25;;;;;;;0.40;0.40;;;29.70;53.70;;;;;;5117111;28;20463;-62
2023/10/13 11:16:55;;;;;;;0.30;0.30;;;29.60;54.00;;;;;;5122776;27;20452;-62
2023/10/13 11:19:27;;;;;;;0.30;0.30;;;29.50;54.30;;;;;;5138356;27;20769;-63
2023/10/13 11:21:57;;;;;;;0.30;0.30;;;29.40;54.80;;;;;;5138111;27;20411;-61
2023/10/13 11:24:22;;;;;;;0.30;0.30;;;29.30;54.20;;;;;;5137389;27;20474;-63
2023/10/13 11:26:49;;;;;;;0.30;0.30;;;29.20;54.30;;;;;;5133073;27;20516;-63
2023/10/13 11:29:18;;;;;;;0.30;0.30;;;29.20;54.50;;;;;;5117385;28;20176;-64
2023/10/13 11:31:57;;;;;;;0.43;0.30;;;29.20;55.30;;;;;;5117401;28;20419;-63
2023/10/13 11:34:23;;;;;;;0.70;0.57;;;29.20;54.90;;;;;;5116859;28;20404;-61
2023/10/13 11:36:49;;;;;;;0.50;0.50;;;29.20;54.00;;;;;;5102325;27;20447;-62
2023/10/13 11:39:24;;;;;;;0.40;0.40;;;29.10;54.90;;;;;;5137464;27;20175;-64
2023/10/13 11:41:55;;;;;;;0.40;0.30;;;29.00;54.90;;;;;;5137568;27;20627;-63
2023/10/13 11:44:30;;;;;;;0.30;0.30;;;28.90;55.80;;;;;;5136934;27;20954;-62
2023/10/13 11:46:56;;;;;;;0.30;0.30;;;28.80;54.30;;;;;;5133411;27;20395;-60
2023/10/13 11:54:55;;;;;;;0.40;0.40;;;28.70;54.40;;;;;;5033653;28;20550;-61
2023/10/13 11:57:21;;;;;;;0.40;0.40;;;28.60;53.80;;;;;;5105259;27;20417;-62
2023/10/13 11:59:53;;;;;;;0.40;0.40;;;28.60;54.10;;;;;;5137158;27;20257;-63
2023/10/13 12:04:58;;;;;;;0.60;0.60;;;28.60;54.70;;;;;;5136720;27;20467;-60
2023/10/13 12:07:45;;;;;;;0.30;0.30;;;28.60;54.60;;;;;;5129888;27;20807;-65
2023/10/13 12:10:33;;;;;;;0.30;0.30;;;28.60;54.60;;;;;;5116531;28;20376;-62
2023/10/13 12:13:05;;;;;;;0.40;0.30;;;28.50;54.20;;;;;;5098208;28;20830;-60
2023/10/13 12:15:36;;;;;;;0.30;0.30;;;28.40;54.10;;;;;;5116112;28;20439;-65
2023/10/13 12:18:03;;;;;;;0.50;0.50;;;28.40;54.50;;;;;;5127978;27;20456;-62
2023/10/13 12:20:36;;;;;;;0.40;0.40;;;28.40;54.60;;;;;;5136697;27;20389;-63
2023/10/13 12:23:15;;;;;;;0.40;0.40;;;28.40;55.50;;;;;;5118492;27;20410;-60
2023/10/13 12:25:54;;;;;;;0.40;0.40;;;28.30;54.80;;;;;;5136585;27;20460;-63
2023/10/13 12:28:22;;;;;;;0.30;0.20;;;28.30;55.50;;;;;;5123238;27;20836;-61
2023/10/13 12:30:48;;;;;;;0.30;0.30;;;28.30;55.70;;;;;;5121903;27;20477;-63
2023/10/13 12:33:16;;;;;;;0.30;0.20;;;28.30;55.60;;;;;;5136397;27;20427;-62
2023/10/13 12:52:31;;;;;;;1.47;0.50;;;28.20;55.10;;;;;;5013301;28;20390;-62
2023/10/13 12:57:27;;;;;;;0.30;0.30;;;28.20;55.10;;;;;;5013240;28;20527;-64
2023/10/13 12:59:53;;;;;;;0.83;0.60;;;28.20;55.10;;;;;;5012973;28;20188;-64
2023/10/13 13:02:20;;;;;;;1.13;0.50;;;28.20;55.10;;;;;;5012542;28;20407;-63
2023/10/13 13:04:50;;;;;;;0.60;0.60;;;28.20;54.70;;;;;;5012553;28;20442;-60
2023/10/13 13:07:16;;;;;;;0.67;0.43;;;28.20;55.10;;;;;;5013054;28;20750;-61
2023/10/13 13:09:43;;;;;;;0.50;0.40;;;28.20;55.00;;;;;;5013372;28;20467;-62
2023/10/13 13:12:12;;;;;;;0.37;0.37;;;28.20;55.50;;;;;;5012669;28;20185;-61
2023/10/13 13:14:40;;;;;;;0.30;0.30;;;28.20;55.70;;;;;;5012191;28;20487;-60
2023/10/13 13:17:05;;;;;;;0.30;0.30;;;28.30;55.30;;;;;;5012582;28;20415;-62
2023/10/13 13:19:41;;;;;;;0.60;0.50;;;28.30;55.10;;;;;;5013306;28;20415;-61
2023/10/13 13:22:14;;;;;;;0.30;0.30;;;28.40;55.10;;;;;;4998362;28;20186;-61
2023/10/13 13:24:43;;;;;;;0.30;0.20;;;28.40;54.90;;;;;;5114363;28;20807;-60
2023/10/13 13:27:13;;;;;;;0.30;0.20;;;28.50;55.30;;;;;;5114997;28;20401;-64
2023/10/13 13:29:42;;;;;;;0.30;0.30;;;28.50;54.70;;;;;;5115029;28;20364;-59
2023/10/13 13:32:17;;;;;;;0.43;0.43;;;28.60;54.80;;;;;;5117693;27;20506;-63
2023/10/13 13:34:44;;;;;;;0.40;0.40;;;28.70;54.90;;;;;;5114145;28;20408;-61
2023/10/13 13:37:12;;;;;;;0.30;0.30;;;28.80;54.60;;;;;;5128570;27;20421;-61
2023/10/13 13:39:43;;;;;;;0.30;0.30;;;28.90;54.20;;;;;;5135289;27;20387;-62
2023/10/13 13:42:09;;;;;;;0.30;0.30;;;28.90;54.50;;;;;;5135258;27;20412;-64
2023/10/13 13:44:38;;;;;;;0.30;0.30;;;28.90;54.40;;;;;;5134816;27;20456;-61
2023/10/13 13:47:11;;;;;;;0.40;0.40;;;28.90;54.20;;;;;;5122738;27;20439;-63
2023/10/13 13:49:46;;;;;;;0.50;0.43;;;28.90;53.80;;;;;;5114720;28;20412;-60
2023/10/13 13:52:17;;;;;;;0.30;0.30;;;28.90;53.50;;;;;;5114578;28;20523;-60
2023/10/13 13:54:43;;;;;;;0.40;0.40;;;28.90;53.50;;;;;;5114226;28;20461;-65
2023/10/13 13:57:09;;;;;;;0.90;0.90;;;28.90;53.00;;;;;;5126993;27;20486;-62
2023/10/13 13:59:36;;;;;;;0.30;0.20;;;28.80;53.10;;;;;;5135150;27;20498;-63
2023/10/13 14:02:18;;;;;;;0.60;0.60;;;28.80;52.90;;;;;;5135045;27;20171;-61
2023/10/13 14:04:46;;;;;;;0.47;0.47;;;28.70;52.60;;;;;;5134478;27;20437;-62
2023/10/13 14:07:14;;;;;;;0.40;0.30;;;28.60;52.90;;;;;;5122337;27;20438;-63
2023/10/13 14:09:43;;;;;;;0.30;0.30;;;28.50;53.20;;;;;;5114434;28;20504;-65
2023/10/13 14:14:56;;;;;;;0.30;0.20;;;28.30;52.80;;;;;;5114081;28;20401;-62
2023/10/13 14:17:28;;;;;;;0.70;0.43;;;28.30;53.20;;;;;;5127053;27;20397;-62
2023/10/13 14:19:57;;;;;;;0.30;0.30;;;28.20;52.40;;;;;;5134660;27;20424;-62
2023/10/13 14:22:24;;;;;;;0.60;0.60;;;28.20;52.60;;;;;;5116785;27;20892;-63
2023/10/13 14:24:54;;;;;;;0.30;0.30;;;28.10;52.30;;;;;;5128183;27;20461;-63
2023/10/13 14:27:23;;;;;;;1.43;0.70;;;28.10;52.40;;;;;;5114077;28;20375;-64
2023/10/13 14:29:52;;;;;;;0.50;0.50;;;28.10;52.60;;;;;;5113905;28;20454;-63
2023/10/13 14:32:19;;;;;;;0.43;0.43;;;28.10;52.70;;;;;;5113811;28;20409;-63
2023/10/13 14:34:48;;;;;;;0.30;0.30;;;28.10;52.00;;;;;;5117966;27;20422;-63
2023/10/13 14:37:20;;;;;;;0.57;0.57;;;28.00;52.30;;;;;;5134463;27;20437;-61
2023/10/13 14:39:46;;;;;;;0.30;0.30;;;28.00;51.60;;;;;;5134448;27;20415;-61
2023/10/13 14:42:12;;;;;;;0.30;0.30;;;27.90;52.10;;;;;;5134458;27;20896;-61
2023/10/13 14:44:37;;;;;;;0.50;0.50;;;27.80;52.20;;;;;;5129077;27;20210;-62
2023/10/13 14:47:05;;;;;;;0.30;0.20;;;27.80;52.40;;;;;;5113747;28;20248;-65
2023/10/13 14:49:31;;;;;;;0.40;0.30;;;27.70;52.30;;;;;;5113758;28;20173;-60
2023/10/13 14:51:59;;;;;;;0.30;0.30;;;27.70;51.80;;;;;;5113747;28;20474;-61
2023/10/13 14:54:33;;;;;;;0.30;0.30;;;27.60;52.50;;;;;;5113527;28;20240;-60
2023/10/13 14:57:00;;;;;;;0.30;0.30;;;27.50;52.00;;;;;;5134125;28;20423;-61
2023/10/13 14:59:27;;;;;;;0.30;0.20;;;27.50;52.30;;;;;;5134017;28;20499;-61
2023/10/13 15:01:53;;;;;;;0.30;0.30;;;27.40;52.60;;;;;;5116076;28;20819;-64
2023/10/13 15:04:24;;;;;;;0.30;0.30;;;27.30;52.70;;;;;;5133930;28;20445;-61
2023/10/13 15:06:50;;;;;;;0.30;0.30;;;27.20;52.50;;;;;;5116064;28;20203;-64
2023/10/13 15:09:23;;;;;;;0.97;0.60;;;27.10;52.30;;;;;;5113651;28;20416;-61
2023/10/13 15:11:49;;;;;;;0.40;0.40;;;27.10;53.00;;;;;;5095372;28;20171;-59
2023/10/13 15:14:15;;;;;;;0.30;0.23;;;27.10;52.00;;;;;;5112986;28;20455;-61
2023/10/13 15:16:42;;;;;;;0.30;0.20;;;27.00;51.80;;;;;;5131841;28;20448;-62
2023/10/13 15:19:09;;;;;;;0.30;0.20;;;26.90;52.60;;;;;;5134198;28;20164;-63
2023/10/13 15:21:35;;;;;;;0.30;0.20;;;26.80;52.10;;;;;;5134064;28;20936;-63
2023/10/13 15:24:13;;;;;;;0.40;0.40;;;26.80;52.20;;;;;;5133456;28;20409;-61
2023/10/13 15:26:41;;;;;;;0.40;0.40;;;26.80;51.60;;;;;;5115099;28;20188;-61
2023/10/13 15:29:12;;;;;;;1.27;1.00;;;26.80;51.70;;;;;;5113260;28;20496;-64
2023/10/13 15:31:40;;;;;;;0.60;0.60;;;26.80;52.20;;;;;;5113299;28;20819;-61
2023/10/13 15:34:15;;;;;;;0.50;0.50;;;26.70;51.10;;;;;;5112854;28;20514;-63
2023/10/13 15:36:44;;;;;;;0.30;0.30;;;26.70;51.60;;;;;;5131461;28;20414;-62
2023/10/13 15:39:15;;;;;;;0.30;0.30;;;26.70;51.20;;;;;;5133788;28;20438;-62
2023/10/13 15:41:42;;;;;;;0.40;0.40;;;26.70;51.10;;;;;;5133670;28;20408;-63
2023/10/13 15:44:13;;;;;;;0.30;0.20;;;26.70;51.30;;;;;;5133042;28;20748;-60
2023/10/13 15:46:39;;;;;;;0.30;0.30;;;26.60;51.40;;;;;;5115101;28;20957;-60
2023/10/13 15:49:08;;;;;;;0.30;0.20;;;26.50;51.70;;;;;;5112382;28;20956;-61
2023/10/13 15:51:36;;;;;;;0.50;0.50;;;26.40;51.60;;;;;;5094820;28;20490;-62
2023/10/13 15:54:02;;;;;;;0.30;0.30;;;26.40;51.70;;;;;;5112740;28;20406;-62
2023/10/13 15:56:32;;;;;;;0.30;0.20;;;26.30;51.90;;;;;;5129487;27;20500;-59
2023/10/13 15:59:00;;;;;;;0.30;0.20;;;26.20;51.80;;;;;;5118423;27;20499;-61
2023/10/13 16:01:27;;;;;;;0.40;0.40;;;26.10;52.20;;;;;;5118779;27;20482;-61
2023/10/13 16:03:53;;;;;;;0.30;0.30;;;26.00;52.30;;;;;;5136861;27;20965;-61
2023/10/13 16:06:19;;;;;;;0.30;0.20;;;26.00;52.50;;;;;;5123278;27;20545;-59
2023/10/13 16:08:45;;;;;;;0.30;0.20;;;25.80;52.70;;;;;;5116704;28;20168;-62
2023/10/13 16:11:19;;;;;;;0.30;0.30;;;25.70;53.20;;;;;;5098279;28;20828;-62
2023/10/13 16:13:46;;;;;;;0.30;0.30;;;25.60;52.40;;;;;;5116592;28;20612;-63
2023/10/13 16:16:16;;;;;;;0.30;0.23;;;25.60;52.20;;;;;;5118403;27;20445;-65
2023/10/13 16:18:43;;;;;;;0.30;0.30;;;25.40;52.50;;;;;;5117609;27;20438;-64
2023/10/13 16:21:12;;;;;;;0.30;0.20;;;25.40;52.60;;;;;;5116374;27;20425;-63
2023/10/13 16:23:55;;;;;;;0.40;0.40;;;25.30;52.80;;;;;;5117260;27;20421;-64
2023/10/13 16:26:21;;;;;;;0.30;0.30;;;25.20;53.10;;;;;;5125429;27;20483;-62
2023/10/13 16:28:59;;;;;;;0.30;0.30;;;25.10;52.30;;;;;;5136881;27;20969;-62
2023/10/13 16:31:28;;;;;;;0.30;0.30;;;25.10;52.50;;;;;;5125301;27;20179;-63
2023/10/13 16:34:01;;;;;;;0.30;0.30;;;25.00;52.70;;;;;;5115921;28;20394;-65
2023/10/13 16:36:28;;;;;;;0.30;0.20;;;25.00;53.00;;;;;;5115952;27;20846;-64
2023/10/13 16:38:57;;;;;;;0.30;0.30;;;24.90;52.90;;;;;;5116145;28;20374;-61
2023/10/13 16:41:24;;;;;;;0.30;0.20;;;24.80;52.90;;;;;;5116216;28;20405;-62
2023/10/13 16:43:50;;;;;;;0.30;0.30;;;24.70;52.80;;;;;;5115626;28;20383;-67
2023/10/13 16:46:17;;;;;;;0.70;0.70;;;24.60;53.00;;;;;;5115834;27;20457;-63
2023/10/13 16:48:42;;;;;;;0.67;0.37;;;24.50;53.20;;;;;;5115439;28;20838;-62
2023/10/13 16:51:14;;;;;;;0.30;0.30;;;24.40;53.30;;;;;;5122915;27;20515;-64
2023/10/13 16:53:42;;;;;;;0.77;0.50;;;24.30;53.20;;;;;;5136357;27;20163;-63
2023/10/13 16:56:08;;;;;;;0.30;0.30;;;24.20;53.50;;;;;;5125371;27;20845;-66
2023/10/13 16:58:34;;;;;;;0.70;0.70;;;24.10;53.80;;;;;;5115576;28;20402;-65
2023/10/13 17:01:08;;;;;;;0.30;0.30;;;24.00;54.10;;;;;;5122870;27;20424;-65
2023/10/13 17:03:37;;;;;;;0.30;0.30;;;23.90;54.20;;;;;;5117785;27;20465;-64
2023/10/13 17:06:02;;;;;;;0.50;0.50;;;23.70;54.50;;;;;;5113506;27;20957;-62
2023/10/13 17:08:29;;;;;;;0.57;0.57;;;23.50;54.90;;;;;;5135167;27;20404;-67
2023/10/13 17:10:55;;;;;;;0.30;0.20;;;23.40;55.30;;;;;;5128992;27;20168;-62
2023/10/13 17:13:21;;;;;;;0.30;0.20;;;23.30;55.60;;;;;;5115304;28;20398;-67
2023/10/13 17:15:48;;;;;;;0.63;0.63;;;23.20;55.90;;;;;;5115101;27;20451;-62
2023/10/13 17:18:16;;;;;;;0.40;0.40;;;23.10;56.10;;;;;;5115468;28;20251;-62
2023/10/13 17:20:45;;;;;;;0.30;0.30;;;23.00;56.20;;;;;;5119529;27;20897;-66
2023/10/13 17:23:11;;;;;;;0.30;0.30;;;23.00;56.30;;;;;;5135402;27;20428;-62
2023/10/13 17:25:39;;;;;;;0.40;0.40;;;22.90;56.40;;;;;;5131504;27;20464;-62
2023/10/13 17:28:15;;;;;;;0.40;0.40;;;22.80;56.50;;;;;;5114970;28;20376;-63
2023/10/13 17:30:49;;;;;;;0.30;0.20;;;22.70;56.70;;;;;;5119632;27;20415;-64
2023/10/13 17:33:15;;;;;;;0.30;0.30;;;22.70;56.80;;;;;;5135890;27;20376;-63
2023/10/13 17:35:41;;;;;;;0.33;0.30;;;22.60;57.10;;;;;;5131591;27;20445;-65
2023/10/13 17:38:08;;;;;;;0.30;0.20;;;22.60;57.30;;;;;;5114920;28;20432;-63
2023/10/13 17:40:35;;;;;;;0.30;0.30;;;22.60;57.50;;;;;;5129393;27;20792;-63
2023/10/13 17:43:02;;;;;;;0.30;0.30;;;22.60;57.80;;;;;;5114927;28;20818;-64
2023/10/13 17:45:28;;;;;;;0.40;0.40;;;22.60;58.00;;;;;;5115060;27;20452;-64
2023/10/13 17:47:55;;;;;;;0.30;0.20;;;22.60;58.10;;;;;;5114417;28;20733;-65
2023/10/13 17:50:20;;;;;;;0.30;0.20;;;22.50;58.40;;;;;;5096253;28;20169;-63
2023/10/13 17:52:47;;;;;;;0.30;0.30;;;22.50;58.60;;;;;;5132765;27;20417;-71
2023/10/13 17:55:16;;;;;;;0.30;0.30;;;22.50;58.70;;;;;;5134500;27;20259;-62
2023/10/13 17:57:42;;;;;;;0.30;0.30;;;22.40;58.70;;;;;;5134416;27;20395;-65
2023/10/13 18:00:14;;;;;;;0.50;0.50;;;22.40;58.80;;;;;;5116087;27;20766;-63
2023/10/13 18:02:43;;;;;;;0.30;0.30;;;22.40;59.10;;;;;;5118078;27;20424;-69
2023/10/13 18:05:10;;;;;;;0.50;0.50;;;22.40;59.80;;;;;;5113802;28;20456;-62
2023/10/13 18:07:37;;;;;;;0.30;0.30;;;22.40;60.80;;;;;;5132075;27;20401;-63
2023/10/13 18:10:03;;;;;;;0.30;0.30;;;22.50;62.60;;;;;;5135128;27;20415;-65
2023/10/13 18:12:29;;;;;;;0.40;0.40;;;22.40;63.30;;;;;;5123916;27;20503;-68
2023/10/13 18:14:56;;;;;;;0.50;0.50;;;22.40;64.70;;;;;;5114133;28;20814;-69
2023/10/13 18:17:22;;;;;;;0.30;0.27;;;22.50;65.70;;;;;;5133299;27;20209;-64
2023/10/13 18:19:47;;;;;;;0.30;0.30;;;22.50;65.90;;;;;;5134526;27;20795;-66
2023/10/13 18:22:16;;;;;;;0.30;0.30;;;22.50;67.00;;;;;;5118811;27;20464;-65
2023/10/13 18:24:45;;;;;;;0.30;0.30;;;22.40;67.30;;;;;;5113677;28;20188;-62
2023/10/13 18:27:11;;;;;;;0.40;0.40;;;22.50;67.40;;;;;;5131205;27;20785;-63
2023/10/13 18:29:37;;;;;;;0.30;0.20;;;22.50;67.90;;;;;;5134529;27;20409;-65
2023/10/13 18:32:04;;;;;;;0.40;0.40;;;22.60;68.00;;;;;;5131072;27;20182;-66
2023/10/13 18:34:30;;;;;;;0.80;0.73;;;22.60;68.20;;;;;;5133773;27;20178;-63
2023/10/13 18:36:59;;;;;;;3.10;0.43;;;22.60;68.50;;;;;;5119302;28;20430;-61
2023/10/13 18:39:33;;;;;;;0.30;0.20;;;22.50;68.40;;;;;;5113641;28;20831;-63
2023/10/13 18:42:05;;;;;;;0.30;0.30;;;22.60;68.30;;;;;;5121612;28;20406;-63
2023/10/13 18:44:33;;;;;;;0.40;0.37;;;22.50;68.50;;;;;;5115883;28;20446;-63
2023/10/13 18:46:59;;;;;;;0.30;0.30;;;22.50;68.50;;;;;;5118385;28;20429;-62
2023/10/13 18:49:25;;;;;;;0.30;0.30;;;22.40;68.70;;;;;;5113617;28;20414;-65
2023/10/13 18:51:51;;;;;;;0.30;0.20;;;22.40;69.10;;;;;;5096834;28;20417;-64
2023/10/13 18:54:17;;;;;;;0.30;0.30;;;22.40;69.30;;;;;;5114084;28;20461;-66
2023/10/13 18:56:43;;;;;;;0.30;0.30;;;22.30;69.20;;;;;;5115360;28;20427;-63
2023/10/13 18:59:15;;;;;;;0.30;0.20;;;22.30;69.30;;;;;;5113592;28;20376;-62
2023/10/13 19:01:41;;;;;;;0.40;0.40;;;22.30;69.50;;;;;;5117327;28;20396;-62
2023/10/13 19:04:12;;;;;;;0.40;0.40;;;22.30;69.60;;;;;;5095111;28;20944;-64
2023/10/13 19:06:38;;;;;;;0.30;0.27;;;22.30;69.80;;;;;;5113125;28;20981;-61
2023/10/13 19:09:04;;;;;;;0.30;0.30;;;22.30;69.50;;;;;;5113382;28;20488;-69
2023/10/13 19:11:34;;;;;;;0.30;0.30;;;22.20;69.40;;;;;;5098617;28;20547;-66
2023/10/13 19:14:00;;;;;;;0.30;0.30;;;22.20;69.30;;;;;;5095014;28;20934;-67
2023/10/13 19:16:26;;;;;;;0.30;0.30;;;22.20;69.30;;;;;;5124041;28;20436;-70
2023/10/13 19:18:52;;;;;;;0.80;0.80;;;22.20;69.10;;;;;;5130525;28;20925;-62
2023/10/13 19:21:20;;;;;;;0.30;0.30;;;22.10;69.30;;;;;;5121984;28;20167;-65
2023/10/13 19:23:50;;;;;;;0.50;0.50;;;22.10;68.90;;;;;;5122664;28;20421;-63
2023/10/13 19:26:21;;;;;;;0.30;0.30;;;22.20;69.10;;;;;;5122415;28;20467;-65
2023/10/13 19:28:49;;;;;;;0.30;0.30;;;22.20;69.00;;;;;;5122045;28;20400;-63
2023/10/13 19:31:17;;;;;;;2.50;2.40;;;22.20;68.30;;;;;;5102841;27;20424;-61
2023/10/13 19:33:43;;;;;;;0.37;0.37;;;22.20;68.10;;;;;;5126219;27;20446;-60
2023/10/13 19:36:12;;;;;;;0.30;0.30;;;22.20;68.10;;;;;;5135618;27;20526;-63
2023/10/13 19:38:40;;;;;;;0.30;0.30;;;22.20;68.20;;;;;;5113084;28;20449;-63
2023/10/13 19:41:19;;;;;;;0.30;0.30;;;22.20;68.30;;;;;;5109330;27;20416;-60
2023/10/13 19:43:59;;;;;;;0.30;0.30;;;22.30;68.10;;;;;;5127382;27;20401;-60
2023/10/13 19:46:36;;;;;;;0.30;0.30;;;22.20;68.00;;;;;;5126411;27;20437;-62
2023/10/13 19:49:03;;;;;;;0.30;0.20;;;22.20;68.30;;;;;;5127189;27;20385;-62
2023/10/13 19:51:30;;;;;;;0.30;0.30;;;22.20;68.10;;;;;;5105346;27;20401;-63
2023/10/13 19:54:02;;;;;;;0.30;0.20;;;22.20;67.70;;;;;;5126874;27;20510;-66
2023/10/13 19:56:33;;;;;;;0.30;0.20;;;22.20;66.90;;;;;;5107734;27;20436;-66
2023/10/13 19:59:03;;;;;;;0.30;0.30;;;22.20;66.60;;;;;;5127392;27;20428;-61
2023/10/13 20:01:32;;;;;;;0.30;0.30;;;22.20;66.10;;;;;;5127767;27;20413;-64
2023/10/13 20:03:58;;;;;;;0.30;0.30;;;22.30;64.90;;;;;;5126151;27;20414;-65
2023/10/13 20:06:28;;;;;;;0.30;0.30;;;22.30;65.50;;;;;;5129035;27;21028;-62
2023/10/13 20:08:57;;;;;;;0.30;0.30;;;22.20;64.00;;;;;;5116402;28;20172;-65
2023/10/13 20:11:27;;;;;;;0.30;0.30;;;22.20;63.80;;;;;;5107380;27;20418;-64
2023/10/13 20:13:56;;;;;;;0.30;0.30;;;22.20;62.50;;;;;;5123877;27;20420;-65
2023/10/13 20:16:23;;;;;;;0.83;0.83;;;22.20;62.00;;;;;;5124676;27;20459;-64